Flight Track Log - Related Links

Times and Time Zones

All times are in EST time to prevent confusion due to time zone crossing. See the N830QS flight status page for this flight to view local times or setup timezone preferences in your user account.

Time Position Orientation Groundspeed Altitude Reporting Facility
EST Latitude Longitude Course Direction KTS MPH feet Rate Location/Type
Mon 04:28:43 PM 45.3000 -75.6667 360° North 10 12 400  Level Montreal Center
Mon 04:31:00 PM 45.1535 -75.7020 196° South  Level FlightAware Approximate
Mon 04:32:07 PM 45.3000 -75.6667 196° South 120 138 800  Level Montreal Center
Mon 04:33:07 PM 45.2667 -75.7333 235° Southwest 220 253 4,500 2,150 Climbing Montreal Center
Mon 04:34:07 PM 45.2500 -75.8000 250° West 210 242 5,100 1,750 Climbing Montreal Center
Mon 04:35:07 PM 45.1833 -75.8333 199° South 230 265 8,000 3,050 Climbing Montreal Center
Mon 04:36:07 PM 45.1167 -75.8000 161° South 270 311 11,200 2,900 Climbing Montreal Center
Mon 04:37:07 PM 45.0500 -75.8000 180° South 270 311 13,800 2,500 Climbing Montreal Center
Mon 04:38:07 PM 44.9667 -75.8333 196° South 280 322 16,200 2,550 Climbing Montreal Center
Mon 04:39:07 PM 44.8833 -75.8333 180° South 280 322 18,900 2,500 Climbing Montreal Center
Mon 04:40:07 PM 44.8167 -75.8500 190° South 280 322 21,200 1,850 Climbing Montreal Center
Mon 04:41:07 PM 44.7333 -75.8667 188° South 280 322 22,600 1,250 Climbing Montreal Center
Mon 04:42:07 PM 44.6500 -75.9000 196° South 290 334 23,700 1,250 Climbing Montreal Center
Mon 04:43:07 PM 44.5667 -75.9167 188° South 290 334 25,100 1,200 Climbing Montreal Center
Mon 04:44:07 PM 44.5000 -75.9167 180° South 300 345 26,100 900 Climbing Montreal Center
Mon 04:45:07 PM 44.4167 -75.9500 196° South 310 357 26,900 450 Climbing Montreal Center
Mon 04:46:07 PM 44.3167 -75.9667 187° South 330 380 27,000 50 Climbing Montreal Center
Mon 04:47:07 PM 44.2167 -75.9500 173° South 350 403 27,000  Level Montreal Center
Mon 04:48:07 PM 44.1167 -75.9167 167° South 360 414 27,000  Level Montreal Center
Mon 04:49:07 PM 44.0333 -75.9000 172° South 370 426 27,000  Level Montreal Center
Mon 04:50:07 PM 43.9167 -75.8500 163° South 370 426 27,000  Level Montreal Center
Mon 04:52:07 PM 43.7333 -75.8000 169° South 360 414 27,000  Level Montreal Center
Mon 04:53:07 PM 43.6333 -75.7833 173° South 360 414 27,000  Level Montreal Center
Mon 04:54:07 PM 43.5333 -75.7333 160° South 360 414 27,000  Level Montreal Center
Mon 04:55:07 PM 43.4333 -75.7167 173° South 350 403 27,000  Level Montreal Center
Mon 04:56:07 PM 43.3500 -75.7000 172° South 350 403 27,000  Level Montreal Center
Mon 04:57:07 PM 43.2500 -75.6667 166° South 360 414 27,000  Level Montreal Center
Mon 04:58:07 PM 43.1667 -75.6333 164° South 360 414 27,000  Level Montreal Center
Mon 04:59:37 PM 43.0272 -75.5964 169° South 357 411 27,000  Level Boston Center
Mon 05:00:37 PM 42.9306 -75.5686 168° South 357 411 27,000 -645 Level Boston Center
Mon 05:01:38 PM 42.8297 -75.5397 168° South 369 425 25,700 -1,377 Descending Boston Center
Mon 05:02:39 PM 42.7292 -75.5097 168° South 372 428 24,200 -1,452 Descending Boston Center
Mon 05:03:42 PM 42.6292 -75.4819 168° South 369 425 22,700 -1,610 Descending Boston Center
Mon 05:04:42 PM 42.5139 -75.4469 167° South 359 413 20,900 -1,636 Descending Boston Center
Mon 05:05:43 PM 42.4186 -75.4161 167° South 355 409 19,400 -1,537 Descending Boston Center
Mon 05:06:43 PM 42.3417 -75.3117 135° Southeast 388 447 17,800 -1,500 Descending Boston Center
Mon 05:07:47 PM 42.2750 -75.2192 134° Southeast 374 430 16,300 -1,306 Descending Boston Center
Mon 05:08:47 PM 42.2028 -75.1225 135° Southeast 356 410 15,100 -694 Descending Boston Center
Mon 05:09:48 PM 42.1331 -75.0289 135° Southeast 354 407 14,900 -97 Descending Boston Center
Mon 05:10:51 PM 42.0639 -74.9328 134° Southeast 356 410 14,900 -48 Level Boston Center
Mon 05:11:52 PM 41.9761 -74.8394 142° Southeast 344 396 14,800 -934 Descending Boston Center
Mon 05:12:53 PM 41.8972 -74.7739 148° Southeast 337 388 13,000 -1,736 Descending Boston Center
Mon 05:13:53 PM 41.8181 -74.7086 148° Southeast 314 361 11,300 -1,548 Descending Boston Center
Mon 05:14:57 PM 41.7508 -74.6553 149° Southeast 278 320 9,800 -1,452 Descending Boston Center
Mon 05:15:57 PM 41.6869 -74.6017 148° Southeast 271 312 8,300 -1,587 Descending Boston Center
Mon 05:16:58 PM 41.6172 -74.5536 153° Southeast 262 302 6,600 -1,113 Descending Boston Center
Mon 05:18:01 PM 41.5531 -74.5642 187° South 234 269 6,000 -290 Descending Boston Center
Mon 05:19:02 PM 41.4892 -74.5769 189° South 234 269 6,000  Level Boston Center
Mon 05:20:02 PM 41.4197 -74.5894 188° South 235 270 6,000 55 Level Boston Center
Mon 05:20:51 PM 41.3667 -74.6167 201° Southwest 235 270 6,100 56 Climbing New York TRACON
Mon 05:21:50 PM 41.3167 -74.6333 194° South 232 267 6,100  Level New York TRACON
Mon 05:22:51 PM 41.2500 -74.6500 191° South 231 266 6,100 -645 Level New York TRACON
Mon 05:23:51 PM 41.1833 -74.6333 169° South 247 284 4,800 -960 Descending New York TRACON
Mon 05:24:56 PM 41.1333 -74.5500 129° Southeast 274 315 4,100 -768 Descending New York TRACON
Mon 05:25:56 PM 41.1167 -74.4500 102° East 258 297 3,200 -500 Descending New York TRACON
Mon 05:26:56 PM 41.1000 -74.3667 105° East 243 280 3,100 -52 Descending New York TRACON
Mon 05:27:51 PM 41.0833 -74.2833 105° East 260 299 3,100 -52 Level New York TRACON
Mon 05:28:51 PM 41.0667 -74.2000 105° East 243 280 3,000 -454 Descending New York TRACON
Mon 05:29:50 PM 41.0500 -74.1333 108° East 191 220 2,200 -450 Descending New York TRACON
Mon 05:30:51 PM 41.0167 -74.0833 131° Southeast 172 198 2,100 -50 Descending New York TRACON
Mon 05:31:51 PM 40.9833 -74.0500 143° Southeast 164 189 2,100 -202 Level New York TRACON
Mon 05:32:50 PM 40.9333 -74.0500 180° South 142 163 1,700 -454 Descending New York TRACON
Mon 05:33:50 PM 40.9167 -74.0500 180° South 95 109 1,200 -545 Descending New York TRACON
Mon 05:34:51 PM 40.8833 -74.0500 180° South 102 117 600 -590 Descending New York TRACON
Mon 05:36:00 PM 40.8500 -74.0500 143° Southeast  Level FlightAware Approximate
Mon 05:43:00 PM 40.8501 -74.0608 143° Southeast  Level Estimated

Login

Don't have an account? Register now (free) for customized features, flight alerts, and more!